Time;durP1;ratioP1;P1;durP2;ratioP2;P2;SDS_P1;SDS_P2;PMS_P1;PMS_P2;Temp;Humidity;BMP_temperature;BMP_pressure;BME280_temperature;BME280_humidity;BME280_pressure;Samples;Min_cycle;Max_cycle;Signal;HPM_P1;HPM_P2
2021/06/04 00:01:28;;;;;;;0.50;0.47;;;;;;;12.75;68.67;101037.00;1718705;82;20965;-86
2021/06/04 00:03:56;;;;;;;0.50;0.50;;;;;;;12.68;69.09;101040.87;1688218;81;21532;-86
2021/06/04 00:06:23;;;;;;;1.52;1.05;;;;;;;12.61;69.30;101036.76;1707992;84;21033;-86
2021/06/04 00:08:51;;;;;;;0.60;0.45;;;;;;;12.54;69.62;101037.07;1708097;83;21013;-85
2021/06/04 00:11:34;;;;;;;0.57;0.57;;;;;;;12.51;69.81;101033.49;1722022;82;21013;-86
2021/06/04 00:14:11;;;;;;;1.15;1.00;;;;;;;12.48;70.02;101036.24;1707466;84;20954;-86
2021/06/04 00:16:43;;;;;;;0.60;0.40;;;;;;;12.46;70.09;101039.84;1708064;84;20929;-86
2021/06/04 00:19:16;;;;;;;0.72;0.72;;;;;;;12.40;70.47;101032.70;1712960;82;21052;-86
2021/06/04 00:21:48;;;;;;;2.40;1.22;;;;;;;12.35;70.83;101037.39;1715721;82;21069;-86
2021/06/04 00:24:17;;;;;;;0.30;0.30;;;;;;;12.30;71.21;101040.14;1708143;84;21013;-86
2021/06/04 00:26:46;;;;;;;0.82;0.80;;;;;;;12.24;71.40;101039.33;1716110;82;21478;-86
2021/06/04 00:29:12;;;;;;;0.88;0.45;;;;;;;12.16;72.00;101041.23;1726539;82;21049;-86
2021/06/04 00:31:39;;;;;;;0.23;0.23;;;;;;;12.10;72.26;101040.98;1723743;83;21052;-86
2021/06/04 00:34:08;;;;;;;0.90;0.53;;;;;;;12.02;72.71;101045.91;1711809;83;21026;-86
2021/06/04 00:36:36;;;;;;;0.50;0.50;;;;;;;11.96;73.24;101044.25;1723822;83;21000;-86
2021/06/04 00:39:04;;;;;;;0.68;0.60;;;;;;;11.91;73.38;101037.97;1711461;82;21072;-86
2021/06/04 00:41:38;;;;;;;0.95;0.68;;;;;;;11.84;73.67;101039.56;1724038;82;20954;-85
2021/06/04 00:44:05;;;;;;;0.62;0.62;;;;;;;11.78;73.96;101042.05;1711839;83;21012;-86
2021/06/04 00:46:32;;;;;;;1.37;0.70;;;;;;;11.74;74.37;101036.27;1703913;83;20998;-86
2021/06/04 00:49:02;;;;;;;0.60;0.60;;;;;;;11.69;74.69;101034.91;1715196;81;21052;-86
2021/06/04 00:51:38;;;;;;;0.45;0.45;;;;;;;11.66;75.04;101034.64;1686873;83;21013;-86
2021/06/04 00:54:07;;;;;;;0.98;0.68;;;;;;;11.61;75.29;101043.66;1723194;83;20973;-86
2021/06/04 00:56:34;;;;;;;0.82;0.72;;;;;;;11.58;75.78;101040.11;1723806;83;21000;-84
2021/06/04 00:59:01;;;;;;;0.53;0.53;;;;;;;11.55;76.06;101033.81;1711878;82;21006;-84
2021/06/04 01:01:30;;;;;;;0.95;0.60;;;;;;;11.53;76.43;101041.47;1699694;84;21053;-84
2021/06/04 01:04:08;;;;;;;0.75;0.55;;;;;;;11.51;76.48;101041.73;1723799;83;21000;-85
2021/06/04 01:06:42;;;;;;;0.35;0.35;;;;;;;11.51;76.81;101037.63;1739440;82;21446;-84
2021/06/04 01:09:38;;;;;;;0.95;0.88;;;;;;;11.49;76.92;101035.70;1697511;83;21036;-85
2021/06/04 01:12:47;;;;;;;0.68;0.53;;;;;;;11.47;76.98;101051.56;1753642;81;21012;-85
2021/06/04 01:16:13;;;;;;;1.50;1.40;;;;;;;11.45;77.16;101047.45;1741032;82;21430;-85
2021/06/04 01:18:48;;;;;;;0.95;0.93;;;;;;;11.41;77.30;101033.51;1753886;81;20965;-85
2021/06/04 01:21:27;;;;;;;0.98;0.65;;;;;;;11.36;77.43;101038.42;1716292;82;21303;-85
2021/06/04 01:24:06;;;;;;;0.72;0.72;;;;;;;11.32;77.76;101040.59;1674880;83;20992;-85
2021/06/04 01:26:50;;;;;;;0.40;0.40;;;;;;;11.28;77.83;101042.24;1714462;82;21479;-85
2021/06/04 01:29:36;;;;;;;1.75;0.85;;;;;;;11.26;77.94;101039.77;1733570;81;20997;-85
2021/06/04 01:32:16;;;;;;;0.55;0.55;;;;;;;11.22;78.15;101045.48;1731689;82;21792;-85
2021/06/04 01:34:49;;;;;;;0.40;0.35;;;;;;;11.17;78.48;101047.66;1714993;82;21033;-85
2021/06/04 01:37:22;;;;;;;0.47;0.47;;;;;;;11.14;78.67;101049.57;1672574;84;20934;-85
2021/06/04 01:39:54;;;;;;;1.77;0.50;;;;;;;11.12;78.90;101046.28;1702452;84;21038;-85
2021/06/04 01:42:27;;;;;;;1.05;0.95;;;;;;;11.08;79.20;101050.66;1722219;82;21862;-85
2021/06/04 01:45:09;;;;;;;0.50;0.50;;;;;;;11.07;79.32;101047.63;1702643;83;21077;-85
2021/06/04 01:47:48;;;;;;;0.80;0.70;;;;;;;11.04;79.51;101049.54;1673764;84;21013;-85
2021/06/04 01:50:28;;;;;;;0.78;0.62;;;;;;;11.00;79.69;101049.78;1676173;82;21017;-84
2021/06/04 01:52:57;;;;;;;0.93;0.47;;;;;;;10.98;79.96;101050.63;1716881;82;21537;-84
2021/06/04 01:55:32;;;;;;;1.90;1.00;;;;;;;10.95;80.03;101048.40;1686854;83;21009;-84
2021/06/04 01:58:07;;;;;;;0.62;0.62;;;;;;;10.93;80.12;101047.32;1708194;84;21100;-85
2021/06/04 02:00:53;;;;;;;0.53;0.53;;;;;;;10.94;80.24;101045.41;1725538;82;21016;-84
2021/06/04 02:03:22;;;;;;;0.95;0.65;;;;;;;10.94;80.33;101046.77;1709151;84;21660;-84
2021/06/04 02:05:52;;;;;;;0.55;0.35;;;;;;;10.91;80.30;101048.13;1708040;83;21101;-84
2021/06/04 02:08:25;;;;;;;1.07;0.50;;;;;;;10.92;80.58;101055.78;1716884;82;21089;-84
2021/06/04 02:10:53;;;;;;;0.62;0.62;;;;;;;10.93;80.74;101051.97;1734236;82;21028;-84
2021/06/04 02:13:19;;;;;;;0.40;0.40;;;;;;;10.91;80.66;101047.31;1708224;84;21073;-84
2021/06/04 02:15:52;;;;;;;0.55;0.45;;;;;;;10.94;80.78;101045.41;1707805;84;20986;-85
2021/06/04 02:18:29;;;;;;;0.57;0.30;;;;;;;10.94;80.87;101054.42;1720647;82;21032;-85
2021/06/04 02:21:02;;;;;;;0.55;0.55;;;;;;;10.98;81.18;101051.99;1715227;82;21029;-84
2021/06/04 02:23:52;;;;;;;0.70;0.70;;;;;;;11.01;81.08;101052.82;1708558;84;21116;-84
2021/06/04 02:26:33;;;;;;;0.50;0.50;;;;;;;11.06;81.07;101055.56;1679681;84;21057;-84
2021/06/04 02:29:13;;;;;;;1.07;0.93;;;;;;;11.16;81.23;101052.05;1710738;83;21086;-85
2021/06/04 02:31:53;;;;;;;1.50;0.80;;;;;;;11.27;81.15;101052.89;1723113;83;21020;-84
2021/06/04 02:34:30;;;;;;;0.68;0.50;;;;;;;11.42;81.26;101050.19;1721814;83;21028;-84
2021/06/04 02:37:07;;;;;;;0.42;0.40;;;;;;;11.56;80.86;101050.50;1716720;81;21087;-84
2021/06/04 02:39:48;;;;;;;0.37;0.37;;;;;;;11.69;80.76;101052.70;1702892;83;21042;-85
2021/06/04 02:42:23;;;;;;;0.57;0.57;;;;;;;11.82;80.61;101048.62;1724207;83;21027;-84
2021/06/04 02:44:57;;;;;;;2.08;1.20;;;;;;;11.95;80.43;101050.84;1696872;83;21044;-85
2021/06/04 02:47:31;;;;;;;0.82;0.82;;;;;;;12.08;79.97;101051.39;1714891;83;21020;-85
2021/06/04 02:50:07;;;;;;;1.98;0.82;;;;;;;12.18;79.57;101050.83;1724030;82;21020;-85
2021/06/04 02:52:41;;;;;;;0.75;0.68;;;;;;;12.27;79.25;101052.47;1722097;82;21019;-85
2021/06/04 02:55:16;;;;;;;1.00;0.72;;;;;;;12.32;78.87;101060.69;1718392;82;20925;-84
2021/06/04 02:57:43;;;;;;;0.82;0.82;;;;;;;12.38;78.67;101056.82;1709782;82;21496;-85
2021/06/04 03:00:18;;;;;;;1.00;0.70;;;;;;;12.42;78.10;101057.92;1676508;84;21053;-85
2021/06/04 03:02:48;;;;;;;0.60;0.60;;;;;;;12.47;78.00;101060.66;1703275;84;21092;-85
2021/06/04 03:05:20;;;;;;;0.93;0.93;;;;;;;12.52;78.23;101065.86;1727982;82;21005;-85
2021/06/04 03:07:48;;;;;;;1.07;1.05;;;;;;;12.55;78.26;101069.41;1676566;84;21052;-85
2021/06/04 03:10:32;;;;;;;0.78;0.65;;;;;;;12.60;77.83;101068.03;1676813;84;21058;-85
2021/06/04 03:13:02;;;;;;;0.78;0.78;;;;;;;12.68;77.87;101066.92;1687753;82;21069;-85
2021/06/04 03:15:38;;;;;;;0.40;0.30;;;;;;;12.79;77.53;101069.63;1716598;82;21431;-85
2021/06/04 03:18:08;;;;;;;0.88;0.88;;;;;;;12.87;77.64;101068.48;1702173;84;21084;-85
2021/06/04 03:20:40;;;;;;;0.95;0.93;;;;;;;12.97;77.20;101069.56;1701848;84;21104;-85
2021/06/04 03:23:09;;;;;;;1.37;0.60;;;;;;;13.05;77.11;101071.72;1725421;82;21025;-85
2021/06/04 03:25:42;;;;;;;0.98;0.98;;;;;;;13.12;76.57;101072.23;1706385;82;21057;-85
2021/06/04 03:28:12;;;;;;;0.95;0.60;;;;;;;13.21;76.35;101076.05;1702963;82;21123;-85
2021/06/04 03:30:40;;;;;;;0.93;0.70;;;;;;;13.27;76.32;101072.19;1706301;82;21645;-85
2021/06/04 03:33:07;;;;;;;2.75;0.72;;;;;;;13.32;76.52;101073.53;1725597;82;21082;-85
2021/06/04 03:35:35;;;;;;;0.85;0.70;;;;;;;13.36;76.13;101075.73;1702505;83;21064;-85
2021/06/04 03:38:03;;;;;;;0.85;0.47;;;;;;;13.40;76.24;101072.67;1702973;84;21519;-85
2021/06/04 03:40:31;;;;;;;0.68;0.37;;;;;;;13.43;75.98;101074.88;1686752;83;21012;-85
2021/06/04 03:42:59;;;;;;;0.88;0.72;;;;;;;13.46;75.83;101072.93;1723129;82;21065;-84
2021/06/04 03:45:33;;;;;;;0.60;0.60;;;;;;;13.50;75.66;101074.83;1707157;84;21024;-85
2021/06/04 03:48:00;;;;;;;0.45;0.45;;;;;;;13.54;75.35;101072.33;1708528;84;21024;-85
2021/06/04 03:50:27;;;;;;;0.62;0.25;;;;;;;13.60;75.47;101069.83;1729952;82;21005;-85
2021/06/04 03:52:53;;;;;;;0.50;0.50;;;;;;;13.67;75.06;101077.73;1713915;82;21005;-85
2021/06/04 03:55:22;;;;;;;1.50;1.40;;;;;;;13.75;75.03;101085.38;1715483;83;21509;-85
2021/06/04 03:57:49;;;;;;;0.65;0.50;;;;;;;13.81;75.22;101085.59;1709518;82;20994;-85
2021/06/04 04:00:27;;;;;;;0.72;0.50;;;;;;;13.85;74.99;101079.81;1735728;82;20997;-85
2021/06/04 04:02:55;;;;;;;0.47;0.35;;;;;;;13.92;75.00;101079.47;1715745;82;21470;-87
2021/06/04 04:05:22;;;;;;;0.82;0.60;;;;;;;13.99;74.92;101082.71;1707917;84;21036;-86
2021/06/04 04:07:49;;;;;;;0.65;0.65;;;;;;;14.04;74.40;101086.80;1716730;82;21044;-85
2021/06/04 04:10:16;;;;;;;0.72;0.68;;;;;;;14.09;74.38;101085.94;1725680;82;21045;-86
2021/06/04 04:12:43;;;;;;;0.45;0.35;;;;;;;14.13;74.03;101080.95;1679448;84;21029;-86
2021/06/04 04:15:17;;;;;;;1.50;1.10;;;;;;;14.18;74.03;101082.84;1707743;84;21498;-86
2021/06/04 04:17:40;;;;;;;0.72;0.72;;;;;;;14.24;73.82;101082.23;1714949;83;21415;-85
2021/06/04 04:20:07;;;;;;;0.93;0.75;;;;;;;14.28;73.53;101078.63;1717666;82;20925;-85
2021/06/04 04:22:34;;;;;;;1.55;0.70;;;;;;;14.34;73.51;101080.77;1707900;84;21669;-85
2021/06/04 04:25:01;;;;;;;4.87;0.70;;;;;;;14.39;73.28;101079.34;1708960;82;21009;-85
2021/06/04 04:27:27;;;;;;;1.10;0.75;;;;;;;14.45;73.38;101081.51;1710540;82;21068;-85
2021/06/04 04:29:55;;;;;;;0.88;0.60;;;;;;;14.49;73.30;101080.64;1742530;81;21375;-85
2021/06/04 04:32:22;;;;;;;0.82;0.82;;;;;;;14.53;73.39;101079.49;1709260;82;21076;-85
2021/06/04 04:34:50;;;;;;;0.82;0.78;;;;;;;14.57;73.40;101080.03;1729185;82;21006;-85
2021/06/04 04:37:18;;;;;;;0.37;0.37;;;;;;;14.62;73.02;101079.16;1712834;82;21044;-85
2021/06/04 04:39:45;;;;;;;0.78;0.60;;;;;;;14.66;73.06;101083.52;1750604;80;21516;-85
2021/06/04 04:42:16;;;;;;;1.07;0.82;;;;;;;14.71;73.37;101087.58;1715779;82;21093;-85
2021/06/04 04:44:46;;;;;;;;;;;;;;;14.73;73.15;101085.36;1726424;81;21009;-85
2021/06/04 04:47:14;;;;;;;2.95;0.78;;;;;;;14.78;73.00;101081.17;1728483;81;20487;-86
2021/06/04 04:49:43;;;;;;;0.90;0.45;;;;;;;14.82;73.34;101082.24;1708778;82;21518;-85
2021/06/04 04:52:11;;;;;;;2.83;0.50;;;;;;;14.87;72.73;101083.56;1734783;82;21009;-85
2021/06/04 04:54:49;;;;;;;1.45;0.30;;;;;;;14.93;71.96;101078.24;1737823;82;21041;-86
2021/06/04 04:57:17;;;;;;;0.70;0.70;;;;;;;15.00;71.47;101077.34;1737074;82;21069;-85
2021/06/04 04:59:44;;;;;;;0.40;0.40;;;;;;;15.10;71.69;101081.08;1733114;82;21512;-87
2021/06/04 05:02:11;;;;;;;3.25;1.10;;;;;;;15.18;71.29;101088.68;1721368;82;21054;-87
2021/06/04 05:04:39;;;;;;;2.42;0.47;;;;;;;15.27;70.85;101089.67;1735744;82;21454;-87
2021/06/04 05:07:06;;;;;;;0.35;0.30;;;;;;;15.38;70.64;101087.06;1712468;81;21136;-87
2021/06/04 05:09:32;;;;;;;1.80;0.45;;;;;;;15.49;70.20;101091.30;1679135;84;21064;-87
2021/06/04 05:11:59;;;;;;;1.35;0.70;;;;;;;15.59;70.04;101096.41;1707440;84;20998;-86
2021/06/04 05:14:26;;;;;;;0.65;0.47;;;;;;;15.69;68.54;101090.74;1707669;84;21526;-87
2021/06/04 05:16:53;;;;;;;0.68;0.65;;;;;;;15.78;68.34;101085.42;1709895;84;21072;-87
2021/06/04 05:19:20;;;;;;;0.72;0.62;;;;;;;15.88;69.04;101091.59;1722763;82;21033;-86
2021/06/04 05:21:46;;;;;;;0.45;0.45;;;;;;;15.96;68.52;101088.70;1737119;81;21016;-87
2021/06/04 05:24:13;;;;;;;1.22;0.75;;;;;;;16.05;68.18;101092.99;1737605;82;21009;-86
2021/06/04 05:26:39;;;;;;;0.55;0.47;;;;;;;16.12;68.27;101093.39;1737555;82;21508;-87
2021/06/04 05:29:07;;;;;;;0.30;0.15;;;;;;;16.22;68.21;101092.41;1740486;81;21536;-87
2021/06/04 05:31:33;;;;;;;0.65;0.50;;;;;;;16.31;66.96;101086.47;1747462;81;21028;-87
2021/06/04 05:34:00;;;;;;;0.80;0.80;;;;;;;16.40;66.18;101093.50;1732676;81;21000;-86
2021/06/04 05:36:33;;;;;;;3.37;1.02;;;;;;;16.44;65.85;101090.38;1761793;81;21060;-87
2021/06/04 05:39:13;;;;;;;2.40;0.75;;;;;;;16.50;66.05;101089.18;1732033;82;21004;-87
2021/06/04 05:41:41;;;;;;;1.52;1.40;;;;;;;16.58;64.91;101091.80;1761482;81;21564;-87
2021/06/04 05:44:14;;;;;;;0.98;0.80;;;;;;;16.65;65.23;101097.16;1760297;81;21007;-87
2021/06/04 05:46:39;;;;;;;1.17;0.65;;;;;;;16.77;65.62;101100.81;1730853;82;21449;-87
2021/06/04 05:49:05;;;;;;;0.37;0.37;;;;;;;16.93;65.68;101104.12;1731484;82;21059;-87
2021/06/04 05:51:32;;;;;;;0.93;0.82;;;;;;;17.09;65.85;101106.03;1730880;82;20996;-87
2021/06/04 05:53:58;;;;;;;5.37;2.77;;;;;;;17.26;65.34;101099.85;1730961;82;21550;-87
2021/06/04 05:56:27;;;;;;;0.85;0.85;;;;;;;17.39;64.68;101099.84;1731187;82;21031;-87
2021/06/04 05:58:53;;;;;;;2.05;1.95;;;;;;;17.45;63.70;101101.11;1731148;82;21000;-86
2021/06/04 06:01:24;;;;;;;3.15;0.90;;;;;;;17.48;63.19;101104.09;1732291;82;21019;-87
2021/06/04 06:03:51;;;;;;;1.37;0.40;;;;;;;17.51;62.73;101108.98;1731097;82;21469;-87
2021/06/04 06:06:18;;;;;;;1.32;0.62;;;;;;;17.62;62.38;101110.38;1731131;82;21000;-88
2021/06/04 06:08:45;;;;;;;0.50;0.47;;;;;;;17.71;61.68;101106.90;1731907;82;21056;-86
2021/06/04 06:11:12;;;;;;;0.98;0.42;;;;;;;17.78;61.02;101104.53;1731557;82;21749;-87
2021/06/04 06:13:40;;;;;;;0.78;0.78;;;;;;;17.91;62.24;101105.06;1731672;82;21007;-87
2021/06/04 06:16:08;;;;;;;0.50;0.50;;;;;;;18.02;59.87;101102.86;1731874;82;21011;-87
2021/06/04 06:18:36;;;;;;;0.45;0.40;;;;;;;18.08;58.89;101106.34;1731850;82;20996;-87
2021/06/04 06:21:02;;;;;;;2.30;0.95;;;;;;;18.07;59.66;101106.88;1732016;82;21059;-87
2021/06/04 06:23:32;;;;;;;1.07;0.98;;;;;;;18.11;60.33;101112.05;1731722;82;21063;-86
2021/06/04 06:26:04;;;;;;;0.93;0.65;;;;;;;18.23;59.72;101108.72;1732264;82;21090;-87
2021/06/04 06:28:33;;;;;;;2.52;1.52;;;;;;;18.36;60.15;101109.20;1732009;82;21055;-87
2021/06/04 06:31:03;;;;;;;0.40;0.40;;;;;;;18.53;60.00;101101.57;1725580;82;20988;-87
2021/06/04 06:33:30;;;;;;;0.80;0.50;;;;;;;18.73;59.25;101101.59;1724511;83;21512;-86
2021/06/04 06:36:00;;;;;;;1.60;1.15;;;;;;;18.92;60.78;101101.39;1724259;82;21009;-87
2021/06/04 06:38:28;;;;;;;0.70;0.63;;;;;;;19.05;59.15;101107.94;1724334;83;21005;-87
2021/06/04 06:40:55;;;;;;;0.75;0.75;;;;;;;19.25;59.05;101101.80;1724282;83;21556;-86
2021/06/04 06:43:25;;;;;;;1.20;0.65;;;;;;;19.25;59.05;101101.80;1698932;83;21044;-86
2021/06/04 06:45:52;;;;;;;1.55;0.88;;;;;;;19.36;58.54;101101.49;1724325;83;21009;-86
2021/06/04 06:48:18;;;;;;;2.02;1.07;;;;;;;19.46;57.93;101105.34;1724377;83;21414;-87
2021/06/04 06:50:45;;;;;;;0.75;0.68;;;;;;;19.73;57.33;101105.09;1724240;83;21012;-87
2021/06/04 06:53:13;;;;;;;1.57;1.07;;;;;;;19.73;57.33;101105.09;1698902;83;21071;-86
2021/06/04 06:55:43;;;;;;;1.87;0.80;;;;;;;19.80;55.78;101107.94;1724245;83;21080;-86
2021/06/04 06:58:10;;;;;;;2.10;1.05;;;;;;;19.76;55.30;101109.17;1726146;82;21004;-87
2021/06/04 07:00:40;;;;;;;0.88;0.65;;;;;;;19.70;54.66;101103.53;1724324;82;21001;-87
2021/06/04 07:03:07;;;;;;;1.12;0.90;;;;;;;19.63;55.64;101106.75;1724281;82;21032;-87
2021/06/04 07:05:34;;;;;;;1.70;1.17;;;;;;;19.63;55.70;101108.70;1724302;83;21001;-86
2021/06/04 07:08:01;;;;;;;0.75;0.40;;;;;;;19.70;54.63;101104.34;1724729;83;21043;-87
2021/06/04 07:10:29;;;;;;;0.78;0.62;;;;;;;19.87;53.44;101101.34;1724239;82;21505;-86
2021/06/04 07:12:58;;;;;;;0.33;0.33;;;;;;;20.03;53.86;101107.19;1724627;83;21379;-86
2021/06/04 07:15:25;;;;;;;1.02;0.42;;;;;;;20.14;51.62;101098.22;1724361;83;21004;-86
2021/06/04 07:17:54;;;;;;;0.93;0.68;;;;;;;20.33;51.24;101097.05;1723988;83;33822;-85
2021/06/04 07:20:23;;;;;;;0.40;0.40;;;;;;;20.50;51.02;101097.02;1724292;83;21012;-86
2021/06/04 07:22:51;;;;;;;0.82;0.42;;;;;;;20.71;50.67;101092.15;1724285;82;21021;-86
2021/06/04 07:25:18;;;;;;;0.50;0.50;;;;;;;20.86;49.91;101092.98;1724927;83;21449;-86
2021/06/04 07:27:46;;;;;;;0.70;0.50;;;;;;;20.94;47.42;101082.97;1724327;82;21016;-87
2021/06/04 07:30:17;;;;;;;0.50;0.45;;;;;;;20.98;45.84;101082.55;1721162;82;21379;-86
2021/06/04 07:32:44;;;;;;;0.30;0.30;;;;;;;21.02;46.16;101081.55;1715283;82;20992;-86
2021/06/04 07:35:13;;;;;;;0.42;0.40;;;;;;;21.04;44.37;101084.82;1715181;83;21076;-86
2021/06/04 07:37:40;;;;;;;1.12;0.50;;;;;;;21.05;46.14;101086.44;1715329;83;21434;-85
2021/06/04 07:40:10;;;;;;;1.80;0.60;;;;;;;21.17;46.57;101083.53;1715437;83;21046;-84
2021/06/04 07:42:36;;;;;;;0.30;0.30;;;;;;;21.33;47.10;101084.55;1715527;83;21049;-86
2021/06/04 07:45:06;;;;;;;0.93;0.47;;;;;;;21.48;45.31;101081.78;1715336;83;21049;-86
2021/06/04 07:47:32;;;;;;;0.53;0.53;;;;;;;21.54;45.96;101076.83;1715422;83;21040;-86
2021/06/04 07:49:59;;;;;;;0.82;0.50;;;;;;;21.57;45.02;101079.77;1716447;83;22072;-86
2021/06/04 07:52:26;;;;;;;1.50;0.78;;;;;;;21.50;42.48;101080.06;1715518;83;21008;-86
2021/06/04 07:54:58;;;;;;;0.30;0.25;;;;;;;21.36;45.21;101080.28;1715711;83;21025;-85
2021/06/04 07:57:21;;;;;;;2.72;0.57;;;;;;;21.28;43.17;101080.58;1714525;83;21056;-86
2021/06/04 07:59:49;;;;;;;0.45;0.35;;;;;;;21.19;42.78;101077.03;1715606;83;20993;-87
2021/06/04 08:02:16;;;;;;;0.30;0.30;;;;;;;21.19;42.31;101077.03;1715350;83;21004;-86
2021/06/04 08:04:42;;;;;;;0.60;0.40;;;;;;;21.22;44.79;101074.99;1715585;83;21013;-87
2021/06/04 08:07:09;;;;;;;0.55;0.53;;;;;;;21.38;41.89;101079.38;1715270;83;21443;-87
2021/06/04 08:09:41;;;;;;;1.22;0.30;;;;;;;21.46;43.20;101064.63;1715951;83;20996;-86
2021/06/04 08:12:07;;;;;;;0.70;0.70;;;;;;;21.55;43.06;101059.02;1715265;83;21477;-90
2021/06/04 08:14:35;;;;;;;0.40;0.40;;;;;;;21.76;41.62;101070.95;1715534;83;21467;-86
2021/06/04 08:17:02;;;;;;;1.47;0.42;;;;;;;21.88;41.32;101059.88;1688173;83;21025;-89
2021/06/04 08:19:30;;;;;;;0.57;0.50;;;;;;;22.09;41.26;101065.98;1715615;83;21553;-88
2021/06/04 08:21:57;;;;;;;2.65;0.98;;;;;;;22.22;39.58;101053.75;1715332;82;21016;-87
2021/06/04 08:24:28;;;;;;;0.40;0.40;;;;;;;22.27;38.79;101065.24;1715463;83;21384;-88
2021/06/04 08:26:55;;;;;;;0.80;0.30;;;;;;;22.31;37.24;101064.22;1715749;83;20993;-87
2021/06/04 08:29:21;;;;;;;0.53;0.50;;;;;;;22.38;37.63;101068.39;1715477;83;21037;-86
2021/06/04 08:31:48;;;;;;;0.35;0.23;;;;;;;22.38;35.98;101062.83;1723340;82;21028;-86
2021/06/04 08:34:15;;;;;;;0.50;0.40;;;;;;;22.41;35.90;101062.97;1724465;83;21008;-87
2021/06/04 08:36:42;;;;;;;0.37;0.37;;;;;;;22.52;38.11;101061.93;1724313;83;21036;-89
2021/06/04 08:39:16;;;;;;;0.30;0.30;;;;;;;22.59;35.77;101045.47;1724094;83;21462;-89
2021/06/04 08:41:56;;;;;;;0.95;0.47;;;;;;;22.56;36.98;101060.67;1724402;83;21024;-89
2021/06/04 08:44:30;;;;;;;0.10;0.10;;;;;;;22.51;35.91;101063.10;1724291;82;21041;-89
2021/06/04 08:47:13;;;;;;;0.70;0.70;;;;;;;22.56;37.18;101054.52;1725105;83;20926;-87
2021/06/04 08:50:04;;;;;;;0.20;0.20;;;;;;;22.70;37.09;101055.00;1724322;83;20989;-88
2021/06/04 08:52:52;;;;;;;0.20;0.20;;;;;;;22.93;37.79;101051.75;1724274;83;21031;-88
2021/06/04 08:55:44;;;;;;;0.90;0.50;;;;;;;22.93;35.01;101052.56;1724213;83;20973;-87
2021/06/04 08:58:40;;;;;;;0.30;0.10;;;;;;;22.79;34.61;101050.70;1700021;83;21004;-90
2021/06/04 09:01:34;;;;;;;0.30;0.30;;;;;;;22.71;36.20;101052.44;1724159;83;21004;-89
2021/06/04 09:04:21;;;;;;;0.53;0.33;;;;;;;22.68;37.19;101045.38;1724502;83;21024;-87
2021/06/04 09:06:54;;;;;;;0.55;0.40;;;;;;;22.70;36.44;101052.22;1724289;82;21005;-87
2021/06/04 09:09:35;;;;;;;;;;;;;;;22.69;38.43;101055.34;1727139;83;21008;-90
2021/06/04 09:12:18;;;;;;;2.15;0.47;;;;;;;22.76;37.15;101052.20;1724255;83;20149;-87
2021/06/04 09:14:46;;;;;;;0.30;0.30;;;;;;;22.72;35.21;101054.08;1724509;83;21019;-88
2021/06/04 09:17:44;;;;;;;0.30;0.30;;;;;;;22.62;35.23;101053.13;1725595;83;21045;-88
2021/06/04 09:20:16;;;;;;;0.40;0.40;;;;;;;22.49;37.17;101061.23;1723922;83;20981;-90
2021/06/04 09:22:46;;;;;;;0.90;0.10;;;;;;;22.49;36.61;101057.87;1724241;83;20929;-90
2021/06/04 09:25:16;;;;;;;0.45;0.40;;;;;;;22.56;37.09;101051.73;1724221;83;21533;-87
2021/06/04 09:27:50;;;;;;;0.72;0.40;;;;;;;22.44;37.52;101056.70;1724188;83;21016;-89
2021/06/04 09:30:22;;;;;;;0.60;0.30;;;;;;;22.25;35.96;101055.84;1724210;83;21043;-87
2021/06/04 09:33:19;;;;;;;0.70;0.35;;;;;;;22.20;38.05;101053.27;1724268;83;21012;-87
2021/06/04 09:36:13;;;;;;;0.55;0.37;;;;;;;22.42;37.02;101056.81;1724356;83;21072;-89
2021/06/04 09:38:53;;;;;;;0.50;0.50;;;;;;;22.59;35.17;101054.41;1724370;82;21020;-87
2021/06/04 09:41:31;;;;;;;0.30;0.30;;;;;;;22.75;36.09;101049.78;1725451;82;20949;-88
2021/06/04 09:44:20;;;;;;;0.30;0.30;;;;;;;22.91;34.44;101052.68;1724453;82;21000;-87
2021/06/04 09:47:13;;;;;;;0.78;0.30;;;;;;;23.00;35.13;101052.02;1724405;83;20998;-90
2021/06/04 09:49:47;;;;;;;0.40;0.40;;;;;;;23.01;34.07;101050.84;1724263;83;20985;-88
2021/06/04 09:52:25;;;;;;;0.33;0.33;;;;;;;22.66;33.64;101055.45;1724271;83;21028;-89
2021/06/04 09:55:26;;;;;;;0.93;0.40;;;;;;;22.27;33.78;101052.13;1724278;83;21060;-87
2021/06/04 09:58:10;;;;;;;0.20;0.20;;;;;;;22.02;35.47;101050.41;1724452;82;21412;-86
2021/06/04 10:00:41;;;;;;;0.47;0.47;;;;;;;22.14;33.76;101049.06;1724146;83;21052;-86
2021/06/04 10:03:28;;;;;;;0.23;0.20;;;;;;;22.35;34.37;101036.48;1724618;82;21043;-87
2021/06/04 10:06:11;;;;;;;0.42;0.40;;;;;;;22.61;33.34;101040.37;1724195;83;21091;-87
2021/06/04 10:08:48;;;;;;;0.20;0.20;;;;;;;22.83;35.76;101039.69;1656225;83;20922;-86
2021/06/04 10:11:30;;;;;;;0.35;0.28;;;;;;;22.99;35.46;101043.41;1724115;82;21414;-86
2021/06/04 10:14:19;;;;;;;0.15;0.15;;;;;;;23.08;34.94;101036.33;1724389;82;20984;-87
2021/06/04 10:19:37;;;;;;;0.80;0.75;;;;;;;23.39;34.02;101037.07;1724249;82;21449;-86
2021/06/04 10:22:37;;;;;;;1.00;0.30;;;;;;;23.47;33.78;101048.69;1723321;83;21052;-87
2021/06/04 10:25:12;;;;;;;0.20;0.20;;;;;;;23.47;33.94;101045.09;1724216;82;21032;-87
2021/06/04 10:27:44;;;;;;;0.20;0.20;;;;;;;23.52;33.09;101055.41;1724184;83;21043;-86
2021/06/04 10:30:32;;;;;;;1.85;0.42;;;;;;;23.54;32.20;101041.94;1724271;83;21004;-87
2021/06/04 10:33:16;;;;;;;0.57;0.20;;;;;;;23.54;31.94;101051.70;1712066;83;21005;-87
2021/06/04 10:35:57;;;;;;;0.30;0.30;;;;;;;23.34;32.80;101044.29;1715171;83;21005;-86
2021/06/04 10:38:39;;;;;;;1.72;0.62;;;;;;;23.12;32.50;101047.83;1715310;83;21487;-87
2021/06/04 10:41:12;;;;;;;0.33;0.33;;;;;;;23.08;32.65;101044.11;1714790;83;21028;-86
2021/06/04 10:44:05;;;;;;;2.08;0.53;;;;;;;23.06;33.88;101038.06;1715658;83;20913;-87
2021/06/04 10:46:39;;;;;;;0.93;0.68;;;;;;;23.15;33.02;101040.73;1686338;83;21044;-88
2021/06/04 10:49:29;;;;;;;0.28;0.28;;;;;;;23.10;34.31;101043.18;1715733;83;20982;-87
2021/06/04 10:52:27;;;;;;;1.45;1.00;;;;;;;22.85;33.13;101045.70;1715341;83;21008;-87
2021/06/04 10:55:05;;;;;;;1.17;0.72;;;;;;;22.63;33.37;101052.56;1661589;83;21285;-88
2021/06/04 10:57:47;;;;;;;1.65;0.40;;;;;;;22.44;34.78;101050.33;1716120;83;20984;-88
2021/06/04 11:00:28;;;;;;;0.25;0.25;;;;;;;22.25;34.98;101050.85;1715749;83;21004;-88
2021/06/04 11:03:17;;;;;;;1.47;0.30;;;;;;;22.25;34.53;101041.92;1715403;83;21053;-87
2021/06/04 11:06:06;;;;;;;0.72;0.30;;;;;;;22.37;34.94;101036.96;1715487;83;20997;-87
2021/06/04 11:09:04;;;;;;;0.60;0.35;;;;;;;22.66;36.14;101040.14;1715455;83;21032;-88
2021/06/04 11:12:03;;;;;;;0.20;0.20;;;;;;;22.79;35.81;101031.78;1715468;83;21009;-88
2021/06/04 11:14:50;;;;;;;0.17;0.17;;;;;;;22.72;35.48;101042.94;1651035;83;20974;-87
2021/06/04 11:17:54;;;;;;;0.45;0.45;;;;;;;22.50;35.07;101043.36;1715395;83;21037;-87
2021/06/04 11:20:28;;;;;;;1.02;0.45;;;;;;;22.29;34.04;101047.05;1716029;83;21001;-87
2021/06/04 11:23:29;;;;;;;0.30;0.30;;;;;;;22.05;34.08;101036.62;1715537;83;20997;-88
2021/06/04 11:25:59;;;;;;;1.32;0.30;;;;;;;21.94;33.76;101045.75;1715291;83;21041;-87
2021/06/04 11:28:47;;;;;;;0.60;0.33;;;;;;;21.83;33.81;101043.37;1715384;83;21008;-88
2021/06/04 11:31:19;;;;;;;0.50;0.50;;;;;;;21.79;34.68;101039.66;1715381;83;21005;-87
2021/06/04 11:33:51;;;;;;;0.60;0.60;;;;;;;21.81;35.79;101042.09;1711638;83;21024;-86
2021/06/04 11:36:27;;;;;;;0.75;0.53;;;;;;;21.87;36.82;101037.95;1715498;83;21555;-87
2021/06/04 11:39:08;;;;;;;0.33;0.20;;;;;;;22.07;36.12;101030.72;1715232;83;20989;-87
2021/06/04 11:41:46;;;;;;;0.75;0.30;;;;;;;22.39;36.41;101032.45;1713934;83;21073;-86
2021/06/04 11:44:43;;;;;;;0.93;0.55;;;;;;;22.82;38.06;101034.67;1715359;83;21548;-87
2021/06/04 11:47:21;;;;;;;1.12;0.50;;;;;;;23.42;35.84;101030.81;1716742;83;21009;-87
2021/06/04 11:50:01;;;;;;;0.60;0.60;;;;;;;24.09;33.68;101024.76;1715566;83;20985;-87
2021/06/04 11:52:40;;;;;;;1.25;0.50;;;;;;;24.53;32.83;101022.75;1715259;82;21045;-87
2021/06/04 11:55:22;;;;;;;0.47;0.37;;;;;;;24.61;32.91;101024.55;1667085;83;20996;-87
2021/06/04 11:58:31;;;;;;;0.28;0.28;;;;;;;24.59;32.99;101026.88;1715588;83;21001;-87
2021/06/04 12:01:24;;;;;;;1.25;0.65;;;;;;;24.28;31.62;101024.05;1669238;85;21499;-88